createdAt,value
2023-01-07T00:00:03.228Z,19.98
2023-01-07T00:00:26.129Z,19.88
2023-01-07T00:00:49.181Z,21.00
2023-01-07T00:01:13.674Z,20.55
2023-01-07T00:01:37.371Z,20.83
2023-01-07T00:02:00.129Z,20.83
2023-01-07T00:02:23.015Z,20.58
2023-01-07T00:02:45.851Z,20.10
2023-01-07T00:03:08.748Z,20.48
2023-01-07T00:03:31.680Z,21.35
2023-01-07T00:03:54.763Z,21.52
2023-01-07T00:04:19.734Z,21.05
2023-01-07T00:04:42.593Z,21.20
2023-01-07T00:05:05.944Z,20.17
2023-01-07T00:05:28.835Z,21.17
2023-01-07T00:05:51.551Z,21.58
2023-01-07T00:06:15.770Z,21.35
2023-01-07T00:06:40.090Z,21.05
2023-01-07T00:07:02.845Z,21.17
2023-01-07T00:07:25.863Z,20.33
2023-01-07T00:07:48.883Z,19.77
2023-01-07T00:08:12.321Z,19.55
2023-01-07T00:08:36.176Z,19.92
2023-01-07T00:08:58.976Z,19.50
2023-01-07T00:09:21.878Z,20.02
2023-01-07T00:09:44.663Z,20.20
2023-01-07T00:10:08.167Z,19.90
2023-01-07T00:10:30.889Z,20.40
2023-01-07T00:10:56.769Z,20.45
2023-01-07T00:11:20.304Z,19.17
2023-01-07T00:11:43.146Z,19.50
2023-01-07T00:12:06.071Z,19.38
2023-01-07T00:12:28.811Z,19.23
2023-01-07T00:12:51.680Z,18.83
2023-01-07T00:13:14.427Z,19.10
2023-01-07T00:13:37.602Z,19.13
2023-01-07T00:14:00.679Z,18.73
2023-01-07T00:14:23.501Z,19.27
2023-01-07T00:14:46.261Z,19.38
2023-01-07T00:15:10.148Z,19.88
2023-01-07T00:15:33.011Z,19.83
2023-01-07T00:15:58.598Z,20.17
2023-01-07T00:16:22.876Z,20.13
2023-01-07T00:16:45.620Z,21.02
2023-01-07T00:17:08.462Z,20.30
2023-01-07T00:17:33.421Z,20.65
2023-01-07T00:17:56.402Z,20.58
2023-01-07T00:18:19.187Z,20.45
2023-01-07T00:18:42.058Z,21.00
2023-01-07T00:19:06.302Z,21.55
2023-01-07T00:19:30.484Z,20.20
2023-01-07T00:19:53.191Z,20.10
2023-01-07T00:20:16.071Z,20.05
2023-01-07T00:20:38.763Z,20.13
2023-01-07T00:21:02.726Z,20.05
2023-01-07T00:21:26.469Z,19.90
2023-01-07T00:21:49.213Z,19.90
2023-01-07T00:22:12.027Z,19.42
2023-01-07T00:22:34.841Z,19.13
2023-01-07T00:22:57.734Z,19.65
2023-01-07T00:23:21.849Z,19.40
2023-01-07T00:23:45.473Z,20.38
2023-01-07T00:24:09.456Z,20.15
2023-01-07T00:24:32.188Z,19.40
2023-01-07T00:24:54.956Z,20.25
2023-01-07T00:25:17.770Z,20.15
2023-01-07T00:25:40.609Z,20.33
2023-01-07T00:26:05.375Z,20.48
2023-01-07T00:26:30.158Z,19.48
2023-01-07T00:26:52.982Z,18.90
2023-01-07T00:27:15.708Z,19.05
2023-01-07T00:27:38.549Z,19.48
2023-01-07T00:28:01.771Z,19.70
2023-01-07T00:28:24.569Z,20.58
2023-01-07T00:28:50.507Z,20.08
2023-01-07T00:29:13.301Z,20.23
2023-01-07T00:29:36.182Z,19.88
2023-01-07T00:29:59.125Z,20.77
2023-01-07T00:30:21.890Z,19.85
2023-01-07T00:30:44.919Z,19.05
2023-01-07T00:31:09.545Z,19.25
2023-01-07T00:31:33.775Z,19.58
2023-01-07T00:31:57.315Z,19.50
2023-01-07T00:32:20.670Z,19.20
2023-01-07T00:33:02.373Z,18.83
2023-01-07T00:33:28.503Z,19.25
2023-01-07T00:34:07.254Z,18.95
2023-01-07T00:34:32.196Z,20.50
2023-01-07T00:34:54.972Z,19.50
2023-01-07T00:35:23.977Z,19.48
2023-01-07T00:35:46.741Z,18.25
2023-01-07T00:36:11.001Z,19.05
2023-01-07T00:36:35.203Z,18.48
2023-01-07T00:37:17.960Z,19.55
2023-01-07T00:37:49.960Z,20.20
2023-01-07T00:38:12.897Z,20.75
2023-01-07T00:38:35.691Z,20.55
2023-01-07T00:38:59.619Z,19.88
2023-01-07T00:39:22.329Z,19.60
2023-01-07T00:39:45.136Z,18.98
2023-01-07T00:40:10.106Z,20.13
2023-01-07T00:40:32.955Z,19.98
2023-01-07T00:40:55.721Z,19.52
2023-01-07T00:41:18.489Z,19.52
2023-01-07T00:41:41.356Z,19.08
2023-01-07T00:42:23.048Z,18.98
2023-01-07T00:42:58.476Z,18.63
2023-01-07T00:43:21.450Z,20.50
2023-01-07T00:43:44.206Z,20.02
2023-01-07T00:44:10.409Z,20.73
2023-01-07T00:44:33.320Z,20.95
2023-01-07T00:44:56.112Z,22.50
2023-01-07T00:45:18.892Z,22.23
2023-01-07T00:45:41.717Z,21.08
2023-01-07T00:46:04.510Z,21.52
2023-01-07T00:46:27.349Z,21.27
2023-01-07T00:46:50.213Z,21.17
2023-01-07T00:47:12.937Z,20.25
2023-01-07T00:47:35.788Z,20.00
2023-01-07T00:47:58.842Z,19.70
2023-01-07T00:48:23.965Z,19.73
2023-01-07T00:48:46.755Z,19.17
2023-01-07T00:49:10.573Z,19.08
2023-01-07T00:49:34.966Z,20.35
2023-01-07T00:49:57.840Z,20.13
2023-01-07T00:50:20.898Z,19.02
2023-01-07T00:50:43.751Z,20.77
2023-01-07T00:51:06.755Z,20.02
2023-01-07T00:51:29.487Z,20.45
2023-01-07T00:51:52.375Z,20.27
2023-01-07T00:52:17.617Z,19.95
2023-01-07T00:52:40.484Z,19.88
2023-01-07T00:53:03.483Z,20.67
2023-01-07T00:53:26.322Z,20.25
2023-01-07T00:53:49.226Z,20.30
2023-01-07T00:54:11.992Z,20.52
2023-01-07T00:54:34.754Z,20.48
2023-01-07T00:54:59.373Z,20.45
2023-01-07T00:55:22.417Z,20.98
2023-01-07T00:55:45.235Z,21.48
2023-01-07T00:56:08.850Z,21.92
2023-01-07T00:56:33.786Z,21.80
2023-01-07T00:56:56.527Z,21.13
2023-01-07T00:57:19.263Z,21.60
2023-01-07T00:57:42.222Z,21.48
2023-01-07T00:58:05.542Z,20.98
2023-01-07T00:58:28.336Z,20.50
2023-01-07T00:58:51.146Z,20.25
2023-01-07T00:59:13.959Z,20.48
2023-01-07T00:59:37.799Z,20.77
2023-01-07T01:00:01.192Z,20.98
2023-01-07T01:00:24.703Z,20.80
2023-01-07T01:00:47.456Z,21.17
2023-01-07T01:01:10.568Z,21.02
2023-01-07T01:01:33.855Z,22.42
2023-01-07T01:01:56.902Z,22.35
2023-01-07T01:02:22.338Z,21.55
2023-01-07T01:02:45.326Z,22.48
2023-01-07T01:03:08.680Z,22.38
2023-01-07T01:03:31.849Z,21.85
2023-01-07T01:03:54.676Z,21.90
2023-01-07T01:04:17.460Z,22.33
2023-01-07T01:04:41.678Z,22.25
2023-01-07T01:05:04.894Z,21.60
2023-01-07T01:05:27.701Z,21.73
2023-01-07T01:05:50.574Z,21.80
2023-01-07T01:06:15.156Z,21.40
2023-01-07T01:06:38.023Z,20.90
2023-01-07T01:07:00.997Z,22.40
2023-01-07T01:07:23.757Z,22.80
2023-01-07T01:07:46.956Z,22.50
2023-01-07T01:08:10.151Z,21.98
2023-01-07T01:08:32.872Z,21.83
2023-01-07T01:08:55.602Z,20.98
2023-01-07T01:09:20.828Z,22.20
2023-01-07T01:09:43.607Z,21.48
2023-01-07T01:10:08.978Z,21.00
2023-01-07T01:10:31.692Z,21.45
2023-01-07T01:10:54.493Z,21.25
2023-01-07T01:11:17.371Z,22.23
2023-01-07T01:11:40.115Z,22.50
2023-01-07T01:12:02.857Z,22.90
2023-01-07T01:12:28.338Z,23.10
2023-01-07T01:12:51.066Z,23.17
2023-01-07T01:13:18.424Z,22.65
2023-01-07T01:13:41.467Z,22.35
2023-01-07T01:14:04.331Z,22.38
2023-01-07T01:14:27.142Z,22.65
2023-01-07T01:14:50.158Z,22.83
2023-01-07T01:15:14.118Z,22.80
2023-01-07T01:15:36.856Z,22.40
2023-01-07T01:15:59.888Z,22.08
2023-01-07T01:16:22.865Z,22.60
2023-01-07T01:16:48.173Z,23.38
2023-01-07T01:17:10.992Z,22.27
2023-01-07T01:17:33.817Z,22.00
2023-01-07T01:17:56.592Z,21.73
2023-01-07T01:18:19.382Z,22.20
2023-01-07T01:18:42.132Z,22.10
2023-01-07T01:19:05.077Z,22.38
2023-01-07T01:19:27.834Z,22.25
2023-01-07T01:19:53.556Z,21.23
2023-01-07T01:20:16.677Z,22.60
2023-01-07T01:20:39.526Z,23.00
2023-01-07T01:21:04.167Z,22.90
2023-01-07T01:21:27.190Z,22.15
2023-01-07T01:21:50.072Z,22.90
2023-01-07T01:22:12.786Z,23.33
2023-01-07T01:22:35.578Z,21.40
2023-01-07T01:22:58.415Z,21.25
2023-01-07T01:23:21.306Z,20.90
2023-01-07T01:23:44.181Z,21.70
2023-01-07T01:24:07.566Z,21.70
2023-01-07T01:24:30.433Z,20.85
2023-01-07T01:24:53.212Z,20.98
2023-01-07T01:25:16.119Z,21.63
2023-01-07T01:25:38.838Z,21.65
2023-01-07T01:26:05.294Z,20.98
2023-01-07T01:26:28.298Z,21.00
2023-01-07T01:26:51.147Z,21.52
2023-01-07T01:27:14.031Z,20.70
2023-01-07T01:27:36.856Z,20.52
2023-01-07T01:27:59.635Z,20.45
2023-01-07T01:28:22.527Z,20.15
2023-01-07T01:28:45.658Z,20.95
2023-01-07T01:29:08.377Z,20.80
2023-01-07T01:29:31.095Z,20.80
2023-01-07T01:29:53.878Z,21.23
2023-01-07T01:30:16.851Z,21.42
2023-01-07T01:30:40.721Z,20.83
2023-01-07T01:31:03.721Z,21.10
2023-01-07T01:31:26.582Z,20.58
2023-01-07T01:31:50.368Z,20.50
2023-01-07T01:32:13.296Z,20.42
2023-01-07T01:32:36.047Z,20.48
2023-01-07T01:32:59.781Z,20.50
2023-01-07T01:33:22.487Z,20.58
2023-01-07T01:33:45.230Z,20.50
2023-01-07T01:34:08.070Z,21.17
2023-01-07T01:34:30.862Z,21.15
2023-01-07T01:34:55.134Z,19.92
2023-01-07T01:35:17.921Z,20.92
2023-01-07T01:35:41.432Z,21.23
2023-01-07T01:36:05.302Z,21.52
2023-01-07T01:36:28.183Z,21.33
2023-01-07T01:36:51.023Z,20.42
2023-01-07T01:37:13.770Z,21.10
2023-01-07T01:37:36.599Z,21.33
2023-01-07T01:38:00.662Z,20.58
2023-01-07T01:38:23.501Z,20.13
2023-01-07T01:38:46.247Z,19.95
2023-01-07T01:39:09.072Z,20.55
2023-01-07T01:39:34.350Z,19.95
2023-01-07T01:39:57.114Z,19.98
2023-01-07T01:40:19.959Z,20.30
2023-01-07T01:40:42.732Z,20.23
2023-01-07T01:41:05.807Z,20.55
2023-01-07T01:41:28.687Z,20.63
2023-01-07T01:41:51.667Z,20.63
2023-01-07T01:42:14.511Z,21.67
2023-01-07T01:42:37.284Z,21.83
2023-01-07T01:43:00.002Z,21.40
2023-01-07T01:43:34.909Z,21.83
2023-01-07T01:43:57.678Z,21.08
2023-01-07T01:44:38.193Z,22.30
2023-01-07T01:45:01.188Z,21.52
2023-01-07T01:45:23.998Z,21.35
2023-01-07T01:45:46.920Z,21.48
2023-01-07T01:46:13.279Z,22.90
2023-01-07T01:46:38.501Z,23.65
2023-01-07T01:47:01.443Z,23.15
2023-01-07T01:47:29.937Z,22.45
2023-01-07T01:47:55.312Z,22.83
2023-01-07T01:48:18.080Z,23.13
2023-01-07T01:48:43.716Z,22.33
2023-01-07T01:49:08.237Z,22.13
2023-01-07T01:49:32.891Z,21.13
2023-01-07T01:49:59.708Z,21.67
2023-01-07T01:50:24.123Z,21.80
2023-01-07T01:50:46.923Z,21.83
2023-01-07T01:51:12.335Z,21.55
2023-01-07T01:51:37.366Z,22.50
2023-01-07T01:52:02.177Z,21.50
2023-01-07T01:52:28.654Z,21.55
2023-01-07T01:52:53.223Z,21.17
2023-01-07T01:53:18.798Z,20.02
2023-01-07T01:53:41.685Z,20.75
2023-01-07T01:54:05.530Z,21.45
2023-01-07T01:54:28.498Z,21.55
2023-01-07T01:54:53.137Z,21.73
2023-01-07T01:55:17.662Z,22.00
2023-01-07T01:55:43.681Z,21.90
2023-01-07T01:56:09.614Z,21.88
2023-01-07T01:56:33.807Z,22.13
2023-01-07T01:56:56.647Z,22.40
2023-01-07T01:57:19.527Z,21.98
2023-01-07T01:57:42.286Z,21.20
2023-01-07T01:58:06.456Z,21.02
2023-01-07T01:58:37.584Z,21.20
2023-01-07T01:59:01.602Z,21.55
2023-01-07T01:59:25.850Z,21.63
2023-01-07T01:59:49.909Z,22.88
2023-01-07T02:00:16.598Z,22.50
2023-01-07T02:00:39.380Z,22.15
2023-01-07T02:01:03.266Z,22.25
2023-01-07T02:01:26.231Z,22.75
2023-01-07T02:01:49.210Z,22.77
2023-01-07T02:02:12.182Z,23.05
2023-01-07T02:02:39.122Z,23.00
2023-01-07T02:03:01.990Z,22.15
2023-01-07T02:03:25.996Z,22.58
2023-01-07T02:03:48.807Z,22.67
2023-01-07T02:04:15.827Z,22.67
2023-01-07T02:04:38.633Z,21.52
2023-01-07T02:05:03.424Z,22.52
2023-01-07T02:05:27.059Z,22.65
2023-01-07T02:05:49.837Z,22.70
2023-01-07T02:06:20.887Z,22.77
2023-01-07T02:06:45.775Z,22.00
2023-01-07T02:07:10.751Z,21.67
2023-01-07T02:07:33.699Z,21.70
2023-01-07T02:07:56.767Z,21.63
2023-01-07T02:08:22.910Z,22.10
2023-01-07T02:08:45.737Z,22.80
2023-01-07T02:09:08.662Z,22.35
2023-01-07T02:09:31.910Z,21.92
2023-01-07T02:10:00.463Z,21.95
2023-01-07T02:10:24.392Z,23.00
2023-01-07T02:10:48.506Z,22.45
2023-01-07T02:11:18.478Z,22.60
2023-01-07T02:11:44.833Z,21.98
2023-01-07T02:12:12.542Z,22.35
2023-01-07T02:12:44.349Z,22.83
2023-01-07T02:13:25.008Z,21.80
2023-01-07T02:14:02.035Z,21.33
2023-01-07T02:14:38.233Z,22.63
2023-01-07T02:15:09.908Z,22.27
2023-01-07T02:15:37.134Z,23.02
2023-01-07T02:16:05.271Z,22.67
2023-01-07T02:16:31.191Z,22.65
2023-01-07T02:16:57.380Z,22.30
2023-01-07T02:17:22.762Z,22.92
2023-01-07T02:17:53.933Z,21.25
2023-01-07T02:18:42.991Z,21.95
2023-01-07T02:19:23.387Z,21.65
2023-01-07T02:20:25.298Z,21.15
2023-01-07T02:20:55.056Z,20.95
2023-01-07T02:21:24.858Z,20.88
2023-01-07T02:21:51.111Z,21.58
2023-01-07T02:22:19.227Z,21.63
2023-01-07T02:22:53.606Z,21.23
2023-01-07T02:23:43.767Z,20.80
2023-01-07T02:24:35.281Z,21.25
2023-01-07T02:25:21.372Z,20.83
2023-01-07T02:25:57.513Z,20.70
2023-01-07T02:26:40.686Z,20.00
2023-01-07T02:27:16.205Z,20.58
2023-01-07T02:28:01.455Z,19.90
2023-01-07T02:28:41.005Z,20.17
2023-01-07T02:29:28.222Z,20.02
2023-01-07T02:30:23.450Z,21.45
2023-01-07T02:30:56.196Z,20.02
2023-01-07T02:31:42.556Z,19.90
2023-01-07T02:32:17.462Z,20.23
2023-01-07T02:33:00.602Z,20.25
2023-01-07T02:33:43.240Z,19.77
2023-01-07T02:34:06.582Z,19.98
2023-01-07T02:34:33.728Z,19.95
2023-01-07T02:35:02.751Z,20.95
2023-01-07T02:35:32.016Z,20.70
2023-01-07T02:36:42.737Z,20.15
2023-01-07T02:37:07.972Z,20.90
2023-01-07T02:37:34.897Z,21.33
2023-01-07T02:38:01.706Z,20.83
2023-01-07T02:38:29.452Z,20.98
2023-01-07T02:39:00.731Z,21.17
2023-01-07T02:39:31.947Z,21.70
2023-01-07T02:39:58.270Z,21.08
2023-01-07T02:40:23.701Z,20.65
2023-01-07T02:40:51.235Z,20.58
2023-01-07T02:41:18.410Z,20.63
2023-01-07T02:41:45.990Z,21.13
2023-01-07T02:42:12.581Z,21.20
2023-01-07T02:42:38.666Z,20.67
2023-01-07T02:43:06.973Z,20.13
2023-01-07T02:43:35.538Z,20.98
2023-01-07T02:44:02.361Z,20.10
2023-01-07T02:44:33.391Z,19.60
2023-01-07T02:45:01.583Z,20.27
2023-01-07T02:45:27.456Z,20.50
2023-01-07T02:45:53.687Z,21.80
2023-01-07T02:46:20.357Z,20.88
2023-01-07T02:46:46.822Z,21.00
2023-01-07T02:47:12.412Z,21.33
2023-01-07T02:47:37.475Z,21.10
2023-01-07T02:48:01.638Z,21.48
2023-01-07T02:48:24.857Z,21.67
2023-01-07T02:48:47.692Z,20.48
2023-01-07T02:49:15.080Z,20.42
2023-01-07T02:49:38.035Z,20.85
2023-01-07T02:50:00.926Z,20.58
2023-01-07T02:50:23.679Z,20.55
2023-01-07T02:50:46.420Z,21.08
2023-01-07T02:51:09.271Z,20.58
2023-01-07T02:51:34.059Z,20.92
2023-01-07T02:51:56.819Z,20.80
2023-01-07T02:52:21.662Z,20.38
2023-01-07T02:52:45.557Z,21.25
2023-01-07T02:53:09.626Z,21.33
2023-01-07T02:53:33.436Z,21.65
2023-01-07T02:53:56.152Z,21.23
2023-01-07T02:54:21.588Z,20.75
2023-01-07T02:54:44.437Z,21.42
2023-01-07T02:55:08.817Z,22.48
2023-01-07T02:55:37.141Z,23.42
2023-01-07T02:56:07.075Z,23.60
2023-01-07T02:56:36.833Z,23.40
2023-01-07T02:57:20.043Z,23.30
2023-01-07T02:58:11.960Z,21.98
2023-01-07T02:58:51.938Z,22.27
2023-01-07T02:59:42.885Z,23.70
2023-01-07T03:00:12.587Z,23.42
2023-01-07T03:00:48.148Z,24.52
2023-01-07T03:01:27.247Z,22.52
2023-01-07T03:02:34.374Z,22.90
2023-01-07T03:03:13.360Z,23.58
2023-01-07T03:03:44.390Z,22.60
2023-01-07T03:04:15.840Z,23.60
2023-01-07T03:04:47.847Z,25.48
2023-01-07T03:05:32.942Z,25.80
2023-01-07T03:06:02.249Z,25.75
2023-01-07T03:06:36.827Z,24.95
2023-01-07T03:07:08.906Z,24.40
2023-01-07T03:07:40.368Z,24.33
2023-01-07T03:08:11.061Z,24.42
2023-01-07T03:08:46.435Z,24.45
2023-01-07T03:09:12.341Z,24.35
2023-01-07T03:09:40.143Z,23.83
2023-01-07T03:10:04.606Z,24.70
2023-01-07T03:10:30.415Z,23.08
2023-01-07T03:10:57.927Z,24.25
2023-01-07T03:11:20.783Z,24.98
2023-01-07T03:11:48.157Z,24.17
2023-01-07T03:12:13.861Z,24.02
2023-01-07T03:12:39.531Z,23.10
2023-01-07T03:13:04.762Z,22.98
2023-01-07T03:13:29.941Z,22.92
2023-01-07T03:14:01.387Z,22.92
2023-01-07T03:14:26.666Z,23.75
2023-01-07T03:14:50.968Z,23.40
2023-01-07T03:15:15.933Z,24.10
2023-01-07T03:15:40.870Z,24.20
2023-01-07T03:16:05.826Z,23.48
2023-01-07T03:16:31.168Z,23.95
2023-01-07T03:16:55.366Z,23.42
2023-01-07T03:17:20.751Z,23.48
2023-01-07T03:17:44.733Z,24.00
2023-01-07T03:18:11.647Z,24.35
2023-01-07T03:18:36.188Z,23.27
2023-01-07T03:19:00.899Z,24.38
2023-01-07T03:19:25.634Z,24.33
2023-01-07T03:19:49.931Z,25.30
2023-01-07T03:20:13.070Z,24.33
2023-01-07T03:20:37.490Z,24.70
2023-01-07T03:21:01.943Z,24.58
2023-01-07T03:21:24.857Z,25.98
2023-01-07T03:21:48.206Z,26.02
2023-01-07T03:22:10.987Z,25.45
2023-01-07T03:22:33.745Z,25.25
2023-01-07T03:22:56.605Z,24.45
2023-01-07T03:23:21.426Z,23.17
2023-01-07T03:23:47.372Z,23.17
2023-01-07T03:24:10.160Z,22.67
2023-01-07T03:24:33.248Z,23.25
2023-01-07T03:24:57.348Z,23.80
2023-01-07T03:25:20.811Z,23.10
2023-01-07T03:25:45.113Z,24.70
2023-01-07T03:26:08.077Z,24.27
2023-01-07T03:26:32.035Z,23.10
2023-01-07T03:26:55.589Z,24.08
2023-01-07T03:27:18.449Z,24.23
2023-01-07T03:27:41.611Z,24.58
2023-01-07T03:28:04.810Z,23.88
2023-01-07T03:28:30.436Z,23.65
2023-01-07T03:28:53.418Z,24.10
2023-01-07T03:29:16.720Z,23.95
2023-01-07T03:29:39.551Z,24.13
2023-01-07T03:30:03.279Z,24.85
2023-01-07T03:30:26.022Z,23.83
2023-01-07T03:30:48.813Z,24.55
2023-01-07T03:31:12.709Z,24.02
2023-01-07T03:31:35.598Z,23.60
2023-01-07T03:31:59.755Z,23.02
2023-01-07T03:32:25.078Z,23.25
2023-01-07T03:32:51.883Z,23.63
2023-01-07T03:33:18.406Z,24.00
2023-01-07T03:33:43.669Z,24.02
2023-01-07T03:34:08.388Z,23.48
2023-01-07T03:34:31.194Z,24.05
2023-01-07T03:34:54.152Z,24.30
2023-01-07T03:35:17.613Z,23.00
2023-01-07T03:35:40.341Z,24.35
2023-01-07T03:36:03.038Z,23.48
2023-01-07T03:36:28.611Z,22.70
2023-01-07T03:36:55.861Z,22.38
2023-01-07T03:37:20.518Z,23.05
2023-01-07T03:37:43.293Z,22.60
2023-01-07T03:38:06.001Z,22.52
2023-01-07T03:38:30.912Z,23.05
2023-01-07T03:38:53.799Z,22.67
2023-01-07T03:39:16.502Z,23.70
2023-01-07T03:39:39.619Z,24.15
2023-01-07T03:40:03.455Z,23.48
2023-01-07T03:40:26.193Z,23.70
2023-01-07T03:40:48.986Z,24.38
2023-01-07T03:41:31.782Z,24.85
2023-01-07T03:42:13.945Z,23.48
2023-01-07T03:42:42.755Z,23.42
2023-01-07T03:43:05.594Z,22.48
2023-01-07T03:43:28.407Z,21.85
2023-01-07T03:43:51.282Z,22.70
2023-01-07T03:44:14.246Z,23.25
2023-01-07T03:44:37.071Z,22.73
2023-01-07T03:44:59.869Z,22.73
2023-01-07T03:45:23.620Z,22.25
2023-01-07T03:45:46.378Z,22.13
2023-01-07T03:46:09.171Z,22.45
2023-01-07T03:46:31.958Z,22.83
2023-01-07T03:46:54.735Z,23.48
2023-01-07T03:47:17.535Z,22.67
2023-01-07T03:47:42.523Z,22.85
2023-01-07T03:48:05.692Z,23.52
2023-01-07T03:48:29.944Z,22.27
2023-01-07T03:48:52.717Z,22.08
2023-01-07T03:49:15.459Z,22.58
2023-01-07T03:49:38.722Z,22.90
2023-01-07T03:50:02.443Z,22.90
2023-01-07T03:50:25.206Z,23.17
2023-01-07T03:50:47.884Z,23.23
2023-01-07T03:51:10.602Z,23.25
2023-01-07T03:51:33.380Z,23.73
2023-01-07T03:51:56.081Z,22.77
2023-01-07T03:52:18.833Z,24.20
2023-01-07T03:52:41.629Z,24.60
2023-01-07T03:53:04.386Z,23.00
2023-01-07T03:53:27.691Z,23.85
2023-01-07T03:53:50.476Z,23.75
2023-01-07T03:54:15.762Z,24.05
2023-01-07T03:54:38.555Z,24.60
2023-01-07T03:55:01.358Z,23.33
2023-01-07T03:55:24.113Z,23.50
2023-01-07T03:55:46.875Z,23.40
2023-01-07T03:56:09.528Z,22.65
2023-01-07T03:56:32.242Z,22.33
2023-01-07T03:56:54.981Z,22.20
2023-01-07T03:57:17.736Z,23.67
2023-01-07T03:57:40.525Z,23.48
2023-01-07T03:58:05.568Z,22.90
2023-01-07T03:58:28.327Z,23.60
2023-01-07T03:58:51.082Z,22.90
2023-01-07T03:59:15.028Z,23.98
2023-01-07T03:59:38.086Z,24.92
2023-01-07T04:00:00.879Z,25.33
2023-01-07T04:00:23.854Z,23.80
2023-01-07T04:00:46.674Z,23.55
2023-01-07T04:01:09.553Z,23.48
2023-01-07T04:01:35.090Z,23.05
2023-01-07T04:01:58.109Z,24.08
2023-01-07T04:02:20.999Z,24.10
2023-01-07T04:02:43.817Z,22.63
2023-01-07T04:03:06.741Z,22.10
2023-01-07T04:03:31.090Z,24.33
2023-01-07T04:03:53.869Z,24.83
2023-01-07T04:04:19.825Z,23.98
2023-01-07T04:04:42.801Z,24.02
2023-01-07T04:05:06.218Z,23.80
2023-01-07T04:05:29.113Z,24.15
2023-01-07T04:05:51.849Z,23.98
2023-01-07T04:06:14.609Z,24.20
2023-01-07T04:06:37.326Z,23.52
2023-01-07T04:07:00.097Z,23.67
2023-01-07T04:07:23.083Z,23.52
2023-01-07T04:07:45.827Z,22.52
2023-01-07T04:08:08.584Z,22.48
2023-01-07T04:08:31.388Z,22.65
2023-01-07T04:08:55.232Z,23.42
2023-01-07T04:09:22.137Z,22.75
2023-01-07T04:09:47.415Z,22.38
2023-01-07T04:10:10.362Z,20.95
2023-01-07T04:10:33.245Z,23.30
2023-01-07T04:10:56.233Z,23.58
2023-01-07T04:11:18.951Z,23.08
2023-01-07T04:11:41.992Z,22.85
2023-01-07T04:12:04.789Z,23.33
2023-01-07T04:12:27.602Z,23.83
2023-01-07T04:12:50.381Z,24.02
2023-01-07T04:13:13.141Z,23.50
2023-01-07T04:13:38.480Z,23.48
2023-01-07T04:14:01.307Z,24.40
2023-01-07T04:14:24.177Z,24.70
2023-01-07T04:14:47.622Z,23.95
2023-01-07T04:15:12.882Z,23.42
2023-01-07T04:15:35.678Z,23.75
2023-01-07T04:15:58.507Z,23.27
2023-01-07T04:16:21.315Z,23.33
2023-01-07T04:16:44.215Z,22.65
2023-01-07T04:17:06.987Z,23.27
2023-01-07T04:17:29.741Z,23.08
2023-01-07T04:17:52.660Z,23.00
2023-01-07T04:18:15.383Z,24.08
2023-01-07T04:18:39.657Z,23.60
2023-01-07T04:19:02.541Z,23.65
2023-01-07T04:19:25.302Z,22.98
2023-01-07T04:19:48.064Z,23.33
2023-01-07T04:20:14.325Z,24.17
2023-01-07T04:20:37.110Z,23.45
2023-01-07T04:20:59.947Z,22.73
2023-01-07T04:21:22.731Z,22.50
2023-01-07T04:21:45.490Z,22.17
2023-01-07T04:22:09.465Z,22.98
2023-01-07T04:22:33.464Z,22.20
2023-01-07T04:22:56.213Z,22.02
2023-01-07T04:23:18.903Z,21.25
2023-01-07T04:23:41.613Z,21.90
2023-01-07T04:24:04.653Z,21.33
2023-01-07T04:24:27.386Z,21.65
2023-01-07T04:24:50.120Z,21.63
2023-01-07T04:25:13.048Z,20.40
2023-01-07T04:25:35.867Z,20.73
2023-01-07T04:25:58.616Z,22.05
2023-01-07T04:26:21.367Z,22.25
2023-01-07T04:26:44.172Z,21.90
2023-01-07T04:27:08.015Z,20.83
2023-01-07T04:27:31.390Z,21.27
2023-01-07T04:27:54.148Z,20.95
2023-01-07T04:28:16.899Z,21.45
2023-01-07T04:28:39.611Z,20.77
2023-01-07T04:29:02.333Z,21.05
2023-01-07T04:29:26.224Z,21.80
2023-01-07T04:29:50.090Z,22.00
2023-01-07T04:30:13.391Z,21.15
2023-01-07T04:30:38.693Z,20.50
2023-01-07T04:31:01.785Z,21.10
2023-01-07T04:31:24.750Z,22.08
2023-01-07T04:31:47.550Z,21.23
2023-01-07T04:32:10.316Z,20.80
2023-01-07T04:32:33.291Z,21.52
2023-01-07T04:32:56.056Z,21.17
2023-01-07T04:33:18.856Z,20.65
2023-01-07T04:33:43.055Z,21.40
2023-01-07T04:34:05.903Z,21.80
2023-01-07T04:34:28.651Z,20.52
2023-01-07T04:34:52.368Z,20.52
2023-01-07T04:35:15.248Z,21.10
2023-01-07T04:35:39.359Z,20.65
2023-01-07T04:36:02.125Z,20.83
2023-01-07T04:36:24.911Z,20.38
2023-01-07T04:36:47.601Z,21.65
2023-01-07T04:37:10.311Z,20.98
2023-01-07T04:37:33.145Z,21.65
2023-01-07T04:37:58.367Z,21.30
2023-01-07T04:38:21.356Z,20.77
2023-01-07T04:38:44.086Z,20.08
2023-01-07T04:39:06.832Z,20.35
2023-01-07T04:39:29.661Z,20.45
2023-01-07T04:39:52.646Z,20.40
2023-01-07T04:40:15.544Z,22.33
2023-01-07T04:40:38.331Z,21.75
2023-01-07T04:41:01.113Z,21.23
2023-01-07T04:41:26.761Z,22.25
2023-01-07T04:41:49.462Z,21.77
2023-01-07T04:42:12.268Z,20.52
2023-01-07T04:42:35.050Z,21.42
2023-01-07T04:42:57.854Z,21.67
2023-01-07T04:43:20.621Z,21.20
2023-01-07T04:43:43.421Z,22.33
2023-01-07T04:44:06.606Z,22.27
2023-01-07T04:44:29.379Z,22.13
2023-01-07T04:44:54.560Z,21.45
2023-01-07T04:45:17.382Z,20.60
2023-01-07T04:45:40.107Z,20.35
2023-01-07T04:46:03.426Z,20.83
2023-01-07T04:46:26.197Z,21.13
2023-01-07T04:46:48.971Z,21.40
2023-01-07T04:47:11.700Z,21.45
2023-01-07T04:47:34.608Z,21.73
2023-01-07T04:47:57.404Z,21.92
2023-01-07T04:48:20.201Z,22.15
2023-01-07T04:48:44.443Z,22.60
2023-01-07T04:49:09.101Z,21.45
2023-01-07T04:49:32.936Z,21.95
2023-01-07T04:49:55.691Z,22.05
2023-01-07T04:50:18.639Z,21.58
2023-01-07T04:50:41.441Z,21.77
2023-01-07T04:51:04.405Z,20.70
2023-01-07T04:51:27.192Z,20.75
2023-01-07T04:51:49.946Z,19.85
2023-01-07T04:52:12.848Z,19.80
2023-01-07T04:52:35.587Z,20.15
2023-01-07T04:52:58.317Z,20.52
2023-01-07T04:53:21.107Z,21.42
2023-01-07T04:53:43.927Z,20.90
2023-01-07T04:54:06.912Z,20.13
2023-01-07T04:54:29.689Z,20.77
2023-01-07T04:54:52.497Z,20.38
2023-01-07T04:55:15.392Z,21.48
2023-01-07T04:55:38.222Z,21.42
2023-01-07T04:56:00.969Z,23.05
2023-01-07T04:56:23.690Z,22.92
2023-01-07T04:56:46.416Z,22.15
2023-01-07T04:57:09.963Z,21.63
2023-01-07T04:57:32.747Z,21.58
2023-01-07T04:57:55.387Z,22.00
2023-01-07T04:58:18.097Z,21.95
2023-01-07T04:58:40.971Z,21.52
2023-01-07T04:59:06.067Z,21.60
2023-01-07T04:59:28.882Z,21.30
2023-01-07T04:59:51.628Z,21.27
2023-01-07T05:00:14.914Z,21.10
2023-01-07T05:00:37.716Z,21.95
2023-01-07T05:01:07.225Z,21.83
2023-01-07T05:01:31.249Z,22.55
2023-01-07T05:01:54.324Z,21.58
2023-01-07T05:02:19.428Z,23.58
2023-01-07T05:02:42.213Z,22.55
2023-01-07T05:03:04.951Z,21.77
2023-01-07T05:03:27.787Z,21.40
2023-01-07T05:03:52.076Z,21.80
2023-01-07T05:04:14.922Z,22.58
2023-01-07T05:04:37.741Z,21.10
2023-01-07T05:05:00.630Z,21.75
2023-01-07T05:05:23.393Z,20.85
2023-01-07T05:05:46.748Z,21.35
2023-01-07T05:06:10.257Z,22.30
2023-01-07T05:06:34.100Z,22.75
2023-01-07T05:06:56.816Z,22.65
2023-01-07T05:07:19.516Z,22.95
2023-01-07T05:07:42.251Z,22.40
2023-01-07T05:08:05.590Z,22.33
2023-01-07T05:08:28.344Z,22.63
2023-01-07T05:08:54.246Z,21.20
2023-01-07T05:09:17.009Z,21.17
2023-01-07T05:09:39.766Z,21.38
2023-01-07T05:10:02.552Z,19.98
2023-01-07T05:10:25.287Z,20.67
2023-01-07T05:10:49.817Z,20.95
2023-01-07T05:11:12.653Z,20.35
2023-01-07T05:11:35.451Z,20.27
2023-01-07T05:11:58.231Z,20.13
2023-01-07T05:12:20.966Z,19.63
2023-01-07T05:12:43.704Z,19.50
2023-01-07T05:13:07.183Z,19.27
2023-01-07T05:13:31.890Z,18.95
2023-01-07T05:13:55.055Z,19.23
2023-01-07T05:14:18.051Z,20.25
2023-01-07T05:14:40.820Z,20.42
2023-01-07T05:15:03.618Z,19.95
2023-01-07T05:15:26.365Z,20.42
2023-01-07T05:15:49.141Z,20.25
2023-01-07T05:16:11.922Z,19.77
2023-01-07T05:16:34.837Z,20.63
2023-01-07T05:16:57.675Z,20.45
2023-01-07T05:17:20.506Z,20.17
2023-01-07T05:17:43.247Z,19.83
2023-01-07T05:18:08.487Z,20.85
2023-01-07T05:18:31.215Z,20.63
2023-01-07T05:18:55.486Z,20.73
2023-01-07T05:19:19.245Z,19.98
2023-01-07T05:19:41.944Z,20.15
2023-01-07T05:20:07.936Z,19.58
2023-01-07T05:20:30.951Z,19.83
2023-01-07T05:20:56.486Z,19.60
2023-01-07T05:21:19.223Z,20.08